SBI5724 ZBAD-UNNT
Flight info
| Callsign | SBI5724 |
|---|---|
| Flight time | 4h 39m |
| Altitude | 32100 |
| Route | IDKEX6K IDKEX B339 ASILA A575 INTIK Y655 SEBRA DCT EPKEL DCT GINOM/K0832F340 A308 TR L158 DEKAN DCT NOSPI R241 BEGIL BEGIL1K |
| Aircraft | A321/M-SDE3FGHIRWY/LB1 |
Departure
| Time | 2026-04-14 09:04 |
|---|---|
| Airport | Beijing Daxing International Airport (ZBAD) |
Arrival
| Time | 2026-04-14 13:43 |
|---|---|
| Airport | Novosibirsk Tolmachevo Airport (UNNT) |
| Time | Latitude | Longitude | Altitude | Speed | Heading |
|---|---|---|---|---|---|
| 2026-04-14 08:08 | 39.50574 | 116.41038 | 85 ft | 0 kts | 94° |
| 2026-04-14 08:20 | 39.50574 | 116.41037 | 85 ft | 0 kts | 94° |
| 2026-04-14 08:44 | 39.50575 | 116.41020 | 76 ft | 4 kts | 94° |
| 2026-04-14 08:44 | 39.50578 | 116.40986 | 97 ft | 4 kts | 94° |
| 2026-04-14 08:44 | 39.50580 | 116.40951 | 88 ft | 4 kts | 101° |
| 2026-04-14 08:45 | 39.50588 | 116.40922 | 89 ft | 4 kts | 141° |
| 2026-04-14 08:45 | 39.50608 | 116.40911 | 90 ft | 4 kts | 167° |
| 2026-04-14 08:45 | 39.50622 | 116.40906 | 88 ft | 0 kts | 167° |
| 2026-04-14 08:49 | 39.50615 | 116.40909 | 88 ft | 3 kts | 167° |
| 2026-04-14 08:49 | 39.50576 | 116.40906 | 88 ft | 6 kts | 189° |
| 2026-04-14 08:49 | 39.50534 | 116.40897 | 89 ft | 6 kts | 189° |
| 2026-04-14 08:50 | 39.50494 | 116.40888 | 87 ft | 6 kts | 190° |
| 2026-04-14 08:50 | 39.50443 | 116.40891 | 87 ft | 7 kts | 173° |
| 2026-04-14 08:50 | 39.50398 | 116.40898 | 86 ft | 6 kts | 173° |
| 2026-04-14 08:50 | 39.50366 | 116.40903 | 86 ft | 4 kts | 173° |
| 2026-04-14 08:51 | 39.50340 | 116.40907 | 88 ft | 6 kts | 173° |
| 2026-04-14 08:51 | 39.50279 | 116.40917 | 88 ft | 10 kts | 173° |
| 2026-04-14 08:51 | 39.50217 | 116.40926 | 88 ft | 8 kts | 173° |
| 2026-04-14 08:51 | 39.50177 | 116.40907 | 87 ft | 5 kts | 229° |
| 2026-04-14 08:52 | 39.50168 | 116.40859 | 87 ft | 8 kts | 262° |
| 2026-04-14 08:52 | 39.50159 | 116.40769 | 86 ft | 11 kts | 262° |
| 2026-04-14 08:52 | 39.50150 | 116.40678 | 86 ft | 9 kts | 263° |
| 2026-04-14 08:52 | 39.50142 | 116.40604 | 89 ft | 7 kts | 263° |
| 2026-04-14 08:53 | 39.50137 | 116.40547 | 85 ft | 5 kts | 263° |
| 2026-04-14 08:53 | 39.50134 | 116.40508 | 85 ft | 3 kts | 263° |
| 2026-04-14 08:53 | 39.50131 | 116.40484 | 85 ft | 3 kts | 263° |
| 2026-04-14 08:53 | 39.50128 | 116.40445 | 89 ft | 6 kts | 263° |
| 2026-04-14 08:54 | 39.50122 | 116.40385 | 87 ft | 8 kts | 263° |
| 2026-04-14 08:54 | 39.50115 | 116.40303 | 88 ft | 10 kts | 263° |
| 2026-04-14 08:54 | 39.50106 | 116.40210 | 88 ft | 9 kts | 263° |
| 2026-04-14 08:54 | 39.50100 | 116.40153 | 91 ft | 4 kts | 260° |
| 2026-04-14 08:55 | 39.50091 | 116.40131 | 90 ft | 4 kts | 233° |
| 2026-04-14 08:55 | 39.50057 | 116.40114 | 91 ft | 5 kts | 181° |
| 2026-04-14 08:55 | 39.50019 | 116.40119 | 90 ft | 9 kts | 174° |
| 2026-04-14 08:55 | 39.49931 | 116.40132 | 92 ft | 14 kts | 173° |
| 2026-04-14 08:56 | 39.49837 | 116.40147 | 90 ft | 13 kts | 173° |
| 2026-04-14 08:56 | 39.49756 | 116.40160 | 91 ft | 11 kts | 173° |
| 2026-04-14 08:56 | 39.49736 | 116.40163 | 89 ft | 12 kts | 172° |
| 2026-04-14 08:56 | 39.49664 | 116.40175 | 89 ft | 11 kts | 173° |
| 2026-04-14 08:57 | 39.49595 | 116.40187 | 88 ft | 9 kts | 173° |
| 2026-04-14 08:57 | 39.49539 | 116.40193 | 90 ft | 7 kts | 176° |
| 2026-04-14 08:57 | 39.49472 | 116.40203 | 91 ft | 13 kts | 173° |
| 2026-04-14 08:57 | 39.49368 | 116.40221 | 90 ft | 16 kts | 172° |
| 2026-04-14 08:58 | 39.49264 | 116.40238 | 92 ft | 14 kts | 173° |
| 2026-04-14 08:58 | 39.49174 | 116.40249 | 89 ft | 12 kts | 175° |
| 2026-04-14 08:58 | 39.49097 | 116.40260 | 90 ft | 10 kts | 173° |
| 2026-04-14 08:58 | 39.49034 | 116.40270 | 91 ft | 9 kts | 173° |
| 2026-04-14 08:59 | 39.48968 | 116.40279 | 92 ft | 10 kts | 174° |
| 2026-04-14 08:59 | 39.48922 | 116.40285 | 94 ft | 10 kts | 174° |
| 2026-04-14 08:59 | 39.48845 | 116.40298 | 90 ft | 12 kts | 173° |
| 2026-04-14 08:59 | 39.48757 | 116.40314 | 91 ft | 14 kts | 170° |
| 2026-04-14 09:00 | 39.48658 | 116.40331 | 90 ft | 15 kts | 173° |
| 2026-04-14 09:00 | 39.48576 | 116.40345 | 92 ft | 5 kts | 172° |
| 2026-04-14 09:00 | 39.48546 | 116.40350 | 92 ft | 4 kts | 173° |
| 2026-04-14 09:00 | 39.48519 | 116.40339 | 92 ft | 5 kts | 213° |
| 2026-04-14 09:01 | 39.48502 | 116.40303 | 93 ft | 3 kts | 256° |
| 2026-04-14 09:01 | 39.48500 | 116.40289 | 93 ft | 3 kts | 262° |
| 2026-04-14 09:01 | 39.48497 | 116.40246 | 98 ft | 6 kts | 264° |
| 2026-04-14 09:01 | 39.48491 | 116.40170 | 100 ft | 11 kts | 263° |
| 2026-04-14 09:02 | 39.48501 | 116.40134 | 100 ft | 5 kts | 320° |
| 2026-04-14 09:02 | 39.48537 | 116.40126 | 100 ft | 0 kts | 354° |
| 2026-04-14 09:03 | 39.48597 | 116.40118 | 101 ft | 34 kts | 353° |
| 2026-04-14 09:03 | 39.49061 | 116.40044 | 102 ft | 98 kts | 353° |
| 2026-04-14 09:03 | 39.49918 | 116.39908 | 101 ft | 148 kts | 353° |
| 2026-04-14 09:03 | 39.51065 | 116.39723 | 208 ft | 176 kts | 354° |
| 2026-04-14 09:04 | 39.52261 | 116.39524 | 989 ft | 173 kts | 353° |
| 2026-04-14 09:04 | 39.53462 | 116.39326 | 1637 ft | 175 kts | 355° |
| 2026-04-14 09:04 | 39.54679 | 116.39419 | 2163 ft | 177 kts | 6° |
| 2026-04-14 09:04 | 39.55911 | 116.39584 | 2614 ft | 179 kts | 5° |
| 2026-04-14 09:05 | 39.57159 | 116.39754 | 3101 ft | 181 kts | 5° |
| 2026-04-14 09:05 | 39.58442 | 116.39927 | 3369 ft | 194 kts | 4° |
| 2026-04-14 09:05 | 39.59848 | 116.40114 | 3513 ft | 211 kts | 4° |
| 2026-04-14 09:05 | 39.61363 | 116.40318 | 3666 ft | 227 kts | 4° |
| 2026-04-14 09:06 | 39.63000 | 116.40542 | 3785 ft | 247 kts | 4° |
| 2026-04-14 09:06 | 39.64794 | 116.40790 | 3981 ft | 268 kts | 4° |
| 2026-04-14 09:06 | 39.66672 | 116.41050 | 4526 ft | 274 kts | 3° |
| 2026-04-14 09:06 | 39.68576 | 116.41318 | 5139 ft | 276 kts | 3° |
| 2026-04-14 09:07 | 39.70494 | 116.41587 | 5791 ft | 277 kts | 4° |
| 2026-04-14 09:07 | 39.72412 | 116.41854 | 6440 ft | 278 kts | 4° |
| 2026-04-14 09:07 | 39.74343 | 116.42119 | 7048 ft | 279 kts | 4° |
| 2026-04-14 09:07 | 39.76283 | 116.42386 | 7657 ft | 281 kts | 4° |
| 2026-04-14 09:08 | 39.78231 | 116.42659 | 8241 ft | 283 kts | 3° |
| 2026-04-14 09:08 | 39.80193 | 116.42934 | 8847 ft | 284 kts | 3° |
| 2026-04-14 09:08 | 39.82160 | 116.43206 | 9468 ft | 285 kts | 2° |
| 2026-04-14 09:08 | 39.84142 | 116.43481 | 10037 ft | 287 kts | 2° |
| 2026-04-14 09:09 | 39.86179 | 116.43765 | 10257 ft | 303 kts | 2° |
| 2026-04-14 09:09 | 39.88327 | 116.44061 | 10387 ft | 319 kts | 2° |
| 2026-04-14 09:09 | 39.90596 | 116.44370 | 10517 ft | 335 kts | 2° |
| 2026-04-14 09:09 | 39.92980 | 116.44695 | 10615 ft | 352 kts | 2° |
| 2026-04-14 09:10 | 39.95460 | 116.45035 | 10816 ft | 363 kts | 2° |
| 2026-04-14 09:10 | 39.97986 | 116.45387 | 11237 ft | 367 kts | 2° |
| 2026-04-14 09:10 | 40.00537 | 116.45749 | 11716 ft | 370 kts | 2° |
| 2026-04-14 09:10 | 40.03072 | 116.46111 | 12191 ft | 372 kts | 2° |
| 2026-04-14 09:11 | 40.05656 | 116.46477 | 12665 ft | 374 kts | 2° |
| 2026-04-14 09:11 | 40.08284 | 116.46846 | 13137 ft | 377 kts | 1° |
| 2026-04-14 09:11 | 40.10864 | 116.47208 | 13593 ft | 379 kts | 1° |
| 2026-04-14 09:11 | 40.13496 | 116.47575 | 14011 ft | 381 kts | 1° |
| 2026-04-14 09:12 | 40.16143 | 116.47944 | 14403 ft | 384 kts | 1° |
| 2026-04-14 09:12 | 40.18808 | 116.48316 | 14792 ft | 386 kts | 1° |
| 2026-04-14 09:12 | 40.21488 | 116.48693 | 15172 ft | 388 kts | 1° |
| 2026-04-14 09:12 | 40.24177 | 116.49072 | 15543 ft | 390 kts | 1° |
| 2026-04-14 09:13 | 40.26881 | 116.49453 | 15904 ft | 392 kts | 1° |
| 2026-04-14 09:13 | 40.29602 | 116.49838 | 16261 ft | 394 kts | 1° |
| 2026-04-14 09:13 | 40.32332 | 116.50225 | 16610 ft | 395 kts | 1° |
| 2026-04-14 09:13 | 40.35072 | 116.50611 | 16950 ft | 397 kts | 2° |
| 2026-04-14 09:14 | 40.37823 | 116.50995 | 17301 ft | 399 kts | 2° |
| 2026-04-14 09:14 | 40.40592 | 116.51382 | 17636 ft | 401 kts | 2° |
| 2026-04-14 09:14 | 40.43379 | 116.51773 | 17975 ft | 402 kts | 2° |
| 2026-04-14 09:14 | 40.46163 | 116.52168 | 18313 ft | 404 kts | 2° |
| 2026-04-14 09:15 | 40.48965 | 116.52564 | 18609 ft | 405 kts | 2° |
| 2026-04-14 09:15 | 40.51771 | 116.52958 | 18899 ft | 407 kts | 2° |
| 2026-04-14 09:15 | 40.54595 | 116.53356 | 19210 ft | 409 kts | 2° |
| 2026-04-14 09:15 | 40.57432 | 116.53759 | 19508 ft | 410 kts | 2° |
| 2026-04-14 09:16 | 40.60268 | 116.54161 | 19808 ft | 412 kts | 2° |
| 2026-04-14 09:16 | 40.63127 | 116.54567 | 20089 ft | 414 kts | 1° |
| 2026-04-14 09:16 | 40.65997 | 116.54976 | 20377 ft | 416 kts | 1° |
| 2026-04-14 09:16 | 40.68887 | 116.55389 | 20657 ft | 418 kts | 1° |
| 2026-04-14 09:17 | 40.71788 | 116.55805 | 20960 ft | 420 kts | 1° |
| 2026-04-14 09:17 | 40.74700 | 116.56220 | 21274 ft | 422 kts | 1° |
| 2026-04-14 09:17 | 40.77627 | 116.56566 | 21569 ft | 421 kts | 356° |
| 2026-04-14 09:17 | 40.80507 | 116.56421 | 21842 ft | 420 kts | 351° |
| 2026-04-14 09:18 | 40.83429 | 116.56145 | 22136 ft | 422 kts | 351° |
| 2026-04-14 09:18 | 40.86367 | 116.55869 | 22428 ft | 424 kts | 352° |
| 2026-04-14 09:18 | 40.89314 | 116.55592 | 22707 ft | 426 kts | 351° |
| 2026-04-14 09:18 | 40.92279 | 116.55313 | 22994 ft | 428 kts | 352° |
| 2026-04-14 09:19 | 40.95257 | 116.55032 | 23263 ft | 430 kts | 352° |
| 2026-04-14 09:19 | 40.98259 | 116.54747 | 23530 ft | 432 kts | 351° |
| 2026-04-14 09:19 | 41.01258 | 116.54464 | 23762 ft | 434 kts | 351° |
| 2026-04-14 09:19 | 41.04281 | 116.54183 | 23982 ft | 436 kts | 351° |
| 2026-04-14 09:20 | 41.07311 | 116.53903 | 24206 ft | 437 kts | 351° |
| 2026-04-14 09:20 | 41.10355 | 116.53621 | 24440 ft | 439 kts | 351° |
| 2026-04-14 09:20 | 41.13407 | 116.53339 | 24663 ft | 441 kts | 351° |
| 2026-04-14 09:20 | 41.16471 | 116.53054 | 24886 ft | 442 kts | 351° |
| 2026-04-14 09:21 | 41.19555 | 116.52770 | 25111 ft | 444 kts | 351° |
| 2026-04-14 09:21 | 41.22556 | 116.52214 | 25329 ft | 439 kts | 342° |
| 2026-04-14 09:21 | 41.25455 | 116.51032 | 25539 ft | 434 kts | 333° |
| 2026-04-14 09:21 | 41.28146 | 116.49265 | 25766 ft | 430 kts | 324° |
| 2026-04-14 09:22 | 41.30709 | 116.47219 | 25977 ft | 430 kts | 324° |
| 2026-04-14 09:22 | 41.33285 | 116.45172 | 26191 ft | 431 kts | 324° |
| 2026-04-14 09:22 | 41.35873 | 116.43126 | 26385 ft | 432 kts | 324° |
| 2026-04-14 09:22 | 41.38460 | 116.41086 | 26581 ft | 433 kts | 324° |
| 2026-04-14 09:23 | 41.41059 | 116.39034 | 26777 ft | 434 kts | 324° |
| 2026-04-14 09:23 | 41.43649 | 116.36989 | 27042 ft | 432 kts | 324° |
| 2026-04-14 09:23 | 41.46240 | 116.34946 | 27303 ft | 431 kts | 324° |
| 2026-04-14 09:23 | 41.48812 | 116.32908 | 27550 ft | 430 kts | 324° |
| 2026-04-14 09:24 | 41.51375 | 116.30867 | 27771 ft | 429 kts | 324° |
| 2026-04-14 09:24 | 41.53908 | 116.28844 | 28005 ft | 429 kts | 324° |
| 2026-04-14 09:24 | 41.56462 | 116.26805 | 28238 ft | 428 kts | 324° |
| 2026-04-14 09:24 | 41.59019 | 116.24767 | 28479 ft | 427 kts | 324° |
| 2026-04-14 09:25 | 41.61567 | 116.22739 | 28722 ft | 426 kts | 324° |
| 2026-04-14 09:25 | 41.64118 | 116.20706 | 28952 ft | 426 kts | 324° |
| 2026-04-14 09:25 | 41.66660 | 116.18680 | 29183 ft | 425 kts | 324° |
| 2026-04-14 09:25 | 41.69195 | 116.16652 | 29416 ft | 424 kts | 323° |
| 2026-04-14 09:26 | 41.71729 | 116.14618 | 29645 ft | 423 kts | 323° |
| 2026-04-14 09:26 | 41.74255 | 116.12591 | 29856 ft | 423 kts | 323° |
| 2026-04-14 09:26 | 41.76777 | 116.10569 | 30053 ft | 422 kts | 323° |
| 2026-04-14 09:26 | 41.79295 | 116.08549 | 30225 ft | 421 kts | 323° |
| 2026-04-14 09:27 | 41.81776 | 116.06561 | 30400 ft | 421 kts | 323° |
| 2026-04-14 09:27 | 41.84324 | 116.04521 | 30589 ft | 420 kts | 323° |
| 2026-04-14 09:27 | 41.86829 | 116.02507 | 30765 ft | 420 kts | 323° |
| 2026-04-14 09:27 | 41.89297 | 116.00516 | 30935 ft | 420 kts | 323° |
| 2026-04-14 09:28 | 41.91799 | 115.98492 | 31104 ft | 419 kts | 323° |
| 2026-04-14 09:28 | 41.94160 | 115.96247 | 31275 ft | 413 kts | 314° |
| 2026-04-14 09:28 | 41.96168 | 115.93533 | 31436 ft | 406 kts | 305° |
| 2026-04-14 09:28 | 41.97786 | 115.90450 | 31603 ft | 402 kts | 296° |
| 2026-04-14 09:29 | 41.99123 | 115.87158 | 31747 ft | 401 kts | 295° |
| 2026-04-14 09:29 | 42.00452 | 115.83866 | 31905 ft | 401 kts | 295° |
| 2026-04-14 09:29 | 42.03128 | 115.77286 | 31932 ft | 401 kts | 296° |
| 2026-04-14 09:30 | 42.05810 | 115.70700 | 31930 ft | 401 kts | 296° |
| 2026-04-14 09:30 | 42.08473 | 115.64111 | 31924 ft | 400 kts | 295° |
| 2026-04-14 09:31 | 42.11120 | 115.57510 | 31918 ft | 400 kts | 295° |
| 2026-04-14 09:31 | 42.13750 | 115.50950 | 31913 ft | 400 kts | 296° |
| 2026-04-14 09:32 | 42.16392 | 115.44354 | 31913 ft | 400 kts | 296° |
| 2026-04-14 09:33 | 42.20352 | 115.34480 | 31912 ft | 399 kts | 296° |
| 2026-04-14 09:33 | 42.22980 | 115.27885 | 31914 ft | 398 kts | 296° |
| 2026-04-14 09:34 | 42.25549 | 115.21265 | 31909 ft | 398 kts | 295° |
| 2026-04-14 09:34 | 42.28033 | 115.14596 | 31909 ft | 397 kts | 294° |
| 2026-04-14 09:35 | 42.30488 | 115.07964 | 31908 ft | 397 kts | 294° |
| 2026-04-14 09:35 | 42.32977 | 115.01301 | 31905 ft | 397 kts | 295° |
| 2026-04-14 09:36 | 42.35467 | 114.94660 | 31900 ft | 396 kts | 295° |
| 2026-04-14 09:36 | 42.37954 | 114.88005 | 31901 ft | 396 kts | 294° |
| 2026-04-14 09:37 | 42.40412 | 114.81386 | 31900 ft | 396 kts | 294° |
| 2026-04-14 09:37 | 42.42876 | 114.74713 | 31896 ft | 395 kts | 294° |
| 2026-04-14 09:38 | 42.45340 | 114.68049 | 31895 ft | 395 kts | 294° |
| 2026-04-14 09:38 | 42.47786 | 114.61423 | 31896 ft | 395 kts | 294° |
| 2026-04-14 09:39 | 42.50237 | 114.54760 | 31896 ft | 395 kts | 294° |
| 2026-04-14 09:39 | 42.52680 | 114.48082 | 31890 ft | 395 kts | 294° |
| 2026-04-14 09:40 | 42.55120 | 114.41412 | 31888 ft | 395 kts | 294° |
| 2026-04-14 09:40 | 42.57565 | 114.34739 | 31884 ft | 395 kts | 294° |
| 2026-04-14 09:41 | 42.60003 | 114.28057 | 31881 ft | 395 kts | 294° |
| 2026-04-14 09:41 | 42.62434 | 114.21367 | 31880 ft | 395 kts | 294° |
| 2026-04-14 09:42 | 42.64926 | 114.14707 | 31882 ft | 395 kts | 295° |
| 2026-04-14 09:42 | 42.67501 | 114.08106 | 31878 ft | 395 kts | 296° |
| 2026-04-14 09:43 | 42.70073 | 114.01490 | 31878 ft | 395 kts | 295° |
| 2026-04-14 09:43 | 42.72598 | 113.94908 | 31878 ft | 395 kts | 295° |
| 2026-04-14 09:44 | 42.75132 | 113.88274 | 31879 ft | 395 kts | 295° |
| 2026-04-14 09:44 | 42.77676 | 113.81601 | 31877 ft | 395 kts | 295° |
| 2026-04-14 09:45 | 42.80189 | 113.75006 | 31877 ft | 395 kts | 295° |
| 2026-04-14 09:45 | 42.82710 | 113.68360 | 31872 ft | 394 kts | 295° |
| 2026-04-14 09:46 | 42.85227 | 113.61719 | 31869 ft | 394 kts | 295° |
| 2026-04-14 09:46 | 42.87745 | 113.55073 | 31869 ft | 394 kts | 295° |
| 2026-04-14 09:47 | 42.90254 | 113.48419 | 31872 ft | 394 kts | 295° |
| 2026-04-14 09:47 | 42.92329 | 113.42894 | 31866 ft | 394 kts | 295° |
| 2026-04-14 09:48 | 42.94823 | 113.36234 | 31864 ft | 394 kts | 295° |
| 2026-04-14 09:48 | 42.97319 | 113.29578 | 31867 ft | 393 kts | 295° |
| 2026-04-14 09:49 | 42.99807 | 113.22923 | 31862 ft | 393 kts | 295° |
| 2026-04-14 09:49 | 43.02295 | 113.16270 | 31865 ft | 393 kts | 296° |
| 2026-04-14 09:50 | 43.04835 | 113.09656 | 31861 ft | 393 kts | 296° |
| 2026-04-14 09:50 | 43.07387 | 113.03044 | 31857 ft | 393 kts | 296° |
| 2026-04-14 09:51 | 43.09914 | 112.96424 | 31847 ft | 393 kts | 296° |
| 2026-04-14 09:51 | 43.12428 | 112.89795 | 31864 ft | 393 kts | 296° |
| 2026-04-14 09:52 | 43.14947 | 112.83160 | 31857 ft | 392 kts | 296° |
| 2026-04-14 09:52 | 43.17460 | 112.76526 | 31862 ft | 392 kts | 296° |
| 2026-04-14 09:53 | 43.19970 | 112.69888 | 31867 ft | 392 kts | 296° |
| 2026-04-14 09:53 | 43.22470 | 112.63244 | 31868 ft | 392 kts | 295° |
| 2026-04-14 09:54 | 43.24964 | 112.56605 | 31870 ft | 392 kts | 295° |
| 2026-04-14 09:54 | 43.27457 | 112.49958 | 31871 ft | 391 kts | 295° |
| 2026-04-14 09:55 | 43.29944 | 112.43320 | 31873 ft | 391 kts | 295° |
| 2026-04-14 09:55 | 43.32428 | 112.36680 | 31874 ft | 391 kts | 295° |
| 2026-04-14 09:56 | 43.34902 | 112.30033 | 31866 ft | 390 kts | 295° |
| 2026-04-14 09:56 | 43.37363 | 112.23382 | 31878 ft | 390 kts | 295° |
| 2026-04-14 09:57 | 43.39848 | 112.16759 | 31878 ft | 390 kts | 299° |
| 2026-04-14 09:57 | 43.43411 | 112.11099 | 31871 ft | 398 kts | 317° |
| 2026-04-14 09:58 | 43.48108 | 112.06964 | 31863 ft | 402 kts | 323° |
| 2026-04-14 09:58 | 43.52839 | 112.02961 | 31867 ft | 402 kts | 323° |
| 2026-04-14 09:59 | 43.57596 | 111.98923 | 31863 ft | 402 kts | 323° |
| 2026-04-14 09:59 | 43.62375 | 111.94904 | 31863 ft | 402 kts | 323° |
| 2026-04-14 10:00 | 43.67131 | 111.90856 | 31860 ft | 400 kts | 320° |
| 2026-04-14 10:00 | 43.71177 | 111.85729 | 31860 ft | 394 kts | 310° |
| 2026-04-14 10:01 | 43.75008 | 111.80329 | 31855 ft | 394 kts | 310° |
| 2026-04-14 10:01 | 43.78845 | 111.74918 | 31855 ft | 394 kts | 310° |
| 2026-04-14 10:02 | 43.82680 | 111.69503 | 31859 ft | 394 kts | 310° |
| 2026-04-14 10:02 | 43.86514 | 111.64084 | 31850 ft | 394 kts | 310° |
| 2026-04-14 10:03 | 43.90339 | 111.58662 | 31854 ft | 393 kts | 310° |
| 2026-04-14 10:03 | 43.94080 | 111.53338 | 31857 ft | 393 kts | 310° |
| 2026-04-14 10:04 | 43.95819 | 111.50863 | 31857 ft | 393 kts | 310° |
| 2026-04-14 10:04 | 43.99640 | 111.45419 | 31848 ft | 393 kts | 310° |
| 2026-04-14 10:05 | 44.03458 | 111.39974 | 31847 ft | 394 kts | 310° |
| 2026-04-14 10:05 | 44.07276 | 111.34523 | 31850 ft | 393 kts | 310° |
| 2026-04-14 10:06 | 44.11063 | 111.29097 | 31852 ft | 393 kts | 310° |
| 2026-04-14 10:06 | 44.14870 | 111.23626 | 31847 ft | 393 kts | 310° |
| 2026-04-14 10:07 | 44.18672 | 111.18150 | 31848 ft | 394 kts | 310° |
| 2026-04-14 10:07 | 44.22481 | 111.12661 | 31848 ft | 393 kts | 310° |
| 2026-04-14 10:08 | 44.26287 | 111.07174 | 31847 ft | 394 kts | 310° |
| 2026-04-14 10:08 | 44.30084 | 111.01671 | 31846 ft | 393 kts | 310° |
| 2026-04-14 10:09 | 44.33881 | 110.96171 | 31847 ft | 393 kts | 310° |
| 2026-04-14 10:09 | 44.37676 | 110.90662 | 31846 ft | 393 kts | 310° |
| 2026-04-14 10:10 | 44.41468 | 110.85145 | 31848 ft | 393 kts | 310° |
| 2026-04-14 10:10 | 44.45224 | 110.79654 | 31845 ft | 393 kts | 309° |
| 2026-04-14 10:11 | 44.49004 | 110.74129 | 31847 ft | 393 kts | 309° |
| 2026-04-14 10:11 | 44.52776 | 110.68603 | 31848 ft | 392 kts | 309° |
| 2026-04-14 10:12 | 44.56544 | 110.63072 | 31845 ft | 392 kts | 309° |
| 2026-04-14 10:12 | 44.60315 | 110.57539 | 31841 ft | 392 kts | 309° |
| 2026-04-14 10:13 | 44.64075 | 110.52006 | 31845 ft | 392 kts | 309° |
| 2026-04-14 10:13 | 44.67833 | 110.46458 | 31840 ft | 391 kts | 309° |
| 2026-04-14 10:14 | 44.71573 | 110.40905 | 31836 ft | 391 kts | 309° |
| 2026-04-14 10:14 | 44.75315 | 110.35353 | 31831 ft | 391 kts | 309° |
| 2026-04-14 10:15 | 44.79066 | 110.29805 | 31834 ft | 391 kts | 309° |
| 2026-04-14 10:15 | 44.82804 | 110.24246 | 31830 ft | 391 kts | 309° |
| 2026-04-14 10:16 | 44.86535 | 110.18674 | 31833 ft | 391 kts | 309° |
| 2026-04-14 10:16 | 44.90261 | 110.13097 | 31825 ft | 390 kts | 309° |
| 2026-04-14 10:17 | 44.93877 | 110.07403 | 31824 ft | 389 kts | 307° |
| 2026-04-14 10:17 | 44.97398 | 110.01598 | 31819 ft | 389 kts | 306° |
| 2026-04-14 10:18 | 45.02658 | 109.92930 | 31819 ft | 389 kts | 307° |
| 2026-04-14 10:18 | 45.06200 | 109.87142 | 31812 ft | 389 kts | 307° |
| 2026-04-14 10:19 | 45.09738 | 109.81356 | 31809 ft | 389 kts | 307° |
| 2026-04-14 10:19 | 45.13275 | 109.75557 | 31807 ft | 389 kts | 307° |
| 2026-04-14 10:20 | 45.16810 | 109.69742 | 31805 ft | 389 kts | 306° |
| 2026-04-14 10:20 | 45.20335 | 109.63925 | 31806 ft | 389 kts | 306° |
| 2026-04-14 10:21 | 45.23864 | 109.58097 | 31799 ft | 389 kts | 306° |
| 2026-04-14 10:21 | 45.27390 | 109.52263 | 31794 ft | 390 kts | 306° |
| 2026-04-14 10:22 | 45.30922 | 109.46413 | 31794 ft | 390 kts | 306° |
| 2026-04-14 10:22 | 45.34445 | 109.40554 | 31787 ft | 390 kts | 306° |
| 2026-04-14 10:23 | 45.37961 | 109.34679 | 31794 ft | 390 kts | 306° |
| 2026-04-14 10:23 | 45.41482 | 109.28806 | 31790 ft | 390 kts | 306° |
| 2026-04-14 10:24 | 45.45009 | 109.22923 | 31791 ft | 391 kts | 306° |
| 2026-04-14 10:24 | 45.48535 | 109.17024 | 31786 ft | 391 kts | 306° |
| 2026-04-14 10:25 | 45.52056 | 109.11107 | 31785 ft | 391 kts | 306° |
| 2026-04-14 10:25 | 45.55576 | 109.05180 | 31783 ft | 392 kts | 306° |
| 2026-04-14 10:26 | 45.59098 | 108.99240 | 31781 ft | 392 kts | 306° |
| 2026-04-14 10:26 | 45.62615 | 108.93291 | 31774 ft | 392 kts | 306° |
| 2026-04-14 10:27 | 45.66131 | 108.87318 | 31774 ft | 393 kts | 306° |
| 2026-04-14 10:27 | 45.69650 | 108.81340 | 31770 ft | 393 kts | 306° |
| 2026-04-14 10:28 | 45.73174 | 108.75354 | 31769 ft | 394 kts | 306° |
| 2026-04-14 10:28 | 45.76704 | 108.69354 | 31766 ft | 394 kts | 306° |
| 2026-04-14 10:29 | 45.80248 | 108.63358 | 31767 ft | 395 kts | 306° |
| 2026-04-14 10:29 | 45.83769 | 108.57379 | 31763 ft | 395 kts | 306° |
| 2026-04-14 10:30 | 45.87310 | 108.51353 | 31762 ft | 395 kts | 306° |
| 2026-04-14 10:30 | 45.90852 | 108.45317 | 31757 ft | 395 kts | 306° |
| 2026-04-14 10:31 | 45.94393 | 108.39267 | 31758 ft | 396 kts | 306° |
| 2026-04-14 10:31 | 45.97930 | 108.33206 | 31758 ft | 396 kts | 305° |
| 2026-04-14 10:32 | 46.01469 | 108.27135 | 31758 ft | 396 kts | 305° |
| 2026-04-14 10:32 | 46.05008 | 108.21051 | 31755 ft | 396 kts | 305° |
| 2026-04-14 10:33 | 46.08542 | 108.14955 | 31759 ft | 397 kts | 305° |
| 2026-04-14 10:33 | 46.12076 | 108.08843 | 31755 ft | 397 kts | 305° |
| 2026-04-14 10:34 | 46.17376 | 107.99661 | 31758 ft | 397 kts | 305° |
| 2026-04-14 10:35 | 46.20884 | 107.93565 | 31754 ft | 397 kts | 305° |
| 2026-04-14 10:35 | 46.24416 | 107.87422 | 31746 ft | 397 kts | 305° |
| 2026-04-14 10:36 | 46.27944 | 107.81271 | 31757 ft | 398 kts | 305° |
| 2026-04-14 10:36 | 46.30899 | 107.76107 | 31744 ft | 398 kts | 305° |
| 2026-04-14 10:37 | 46.34405 | 107.69967 | 31821 ft | 400 kts | 305° |
| 2026-04-14 10:37 | 46.36198 | 107.66813 | 31979 ft | 401 kts | 304° |
| 2026-04-14 10:37 | 46.37947 | 107.63731 | 32170 ft | 401 kts | 304° |
| 2026-04-14 10:37 | 46.39717 | 107.60612 | 32359 ft | 401 kts | 304° |
| 2026-04-14 10:38 | 46.41486 | 107.57496 | 32568 ft | 401 kts | 304° |
| 2026-04-14 10:38 | 46.43257 | 107.54379 | 32781 ft | 400 kts | 304° |
| 2026-04-14 10:38 | 46.45026 | 107.51266 | 32975 ft | 399 kts | 304° |
| 2026-04-14 10:38 | 46.46786 | 107.48161 | 33173 ft | 399 kts | 304° |
| 2026-04-14 10:39 | 46.48549 | 107.45049 | 33358 ft | 399 kts | 304° |
| 2026-04-14 10:39 | 46.50310 | 107.41938 | 33545 ft | 399 kts | 304° |
| 2026-04-14 10:39 | 46.52066 | 107.38831 | 33702 ft | 398 kts | 304° |
| 2026-04-14 10:40 | 46.55584 | 107.32586 | 33735 ft | 399 kts | 304° |
| 2026-04-14 10:40 | 46.59085 | 107.26338 | 33732 ft | 399 kts | 304° |
| 2026-04-14 10:41 | 46.62577 | 107.20108 | 33730 ft | 399 kts | 304° |
| 2026-04-14 10:41 | 46.66087 | 107.13829 | 33728 ft | 400 kts | 304° |
| 2026-04-14 10:42 | 46.69599 | 107.07544 | 33725 ft | 400 kts | 304° |
| 2026-04-14 10:42 | 46.73116 | 107.01231 | 33722 ft | 401 kts | 304° |
| 2026-04-14 10:43 | 46.76616 | 106.94913 | 33722 ft | 401 kts | 304° |
| 2026-04-14 10:43 | 46.80116 | 106.88578 | 33723 ft | 401 kts | 304° |
| 2026-04-14 10:44 | 46.83621 | 106.82235 | 33720 ft | 401 kts | 304° |
| 2026-04-14 10:44 | 46.87101 | 106.75851 | 33722 ft | 401 kts | 303° |
| 2026-04-14 10:45 | 46.90546 | 106.69437 | 33726 ft | 401 kts | 303° |
| 2026-04-14 10:45 | 46.93986 | 106.63002 | 33724 ft | 401 kts | 303° |
| 2026-04-14 10:46 | 46.97415 | 106.56602 | 33731 ft | 393 kts | 303° |
| 2026-04-14 10:46 | 47.00742 | 106.50408 | 33718 ft | 384 kts | 302° |
| 2026-04-14 10:47 | 47.04021 | 106.44239 | 33716 ft | 383 kts | 302° |
| 2026-04-14 10:47 | 47.07291 | 106.38077 | 33718 ft | 383 kts | 302° |
| 2026-04-14 10:48 | 47.10566 | 106.31915 | 33709 ft | 383 kts | 302° |
| 2026-04-14 10:48 | 47.13836 | 106.25749 | 33723 ft | 383 kts | 302° |
| 2026-04-14 10:49 | 47.17105 | 106.19574 | 33711 ft | 383 kts | 302° |
| 2026-04-14 10:49 | 47.20366 | 106.13386 | 33716 ft | 383 kts | 302° |
| 2026-04-14 10:50 | 47.23623 | 106.07194 | 33716 ft | 383 kts | 302° |
| 2026-04-14 10:50 | 47.26860 | 106.01022 | 33711 ft | 383 kts | 302° |
| 2026-04-14 10:51 | 47.30112 | 105.94806 | 33720 ft | 383 kts | 302° |
| 2026-04-14 10:51 | 47.33367 | 105.88580 | 33717 ft | 383 kts | 302° |
| 2026-04-14 10:52 | 47.36620 | 105.82355 | 33717 ft | 383 kts | 302° |
| 2026-04-14 10:52 | 47.39872 | 105.76112 | 33719 ft | 383 kts | 302° |
| 2026-04-14 10:53 | 47.43116 | 105.69854 | 33717 ft | 384 kts | 302° |
| 2026-04-14 10:53 | 47.46359 | 105.63583 | 33719 ft | 384 kts | 302° |
| 2026-04-14 10:54 | 47.49602 | 105.57317 | 33720 ft | 384 kts | 302° |
| 2026-04-14 10:54 | 47.52844 | 105.51020 | 33722 ft | 384 kts | 302° |
| 2026-04-14 10:55 | 47.56086 | 105.44723 | 33716 ft | 385 kts | 302° |
| 2026-04-14 10:55 | 47.59343 | 105.38477 | 33714 ft | 386 kts | 302° |
| 2026-04-14 10:56 | 47.62623 | 105.32184 | 33714 ft | 386 kts | 302° |
| 2026-04-14 10:56 | 47.65891 | 105.25876 | 33719 ft | 386 kts | 302° |
| 2026-04-14 10:57 | 47.69158 | 105.19559 | 33721 ft | 386 kts | 302° |
| 2026-04-14 10:57 | 47.72427 | 105.13214 | 33724 ft | 386 kts | 302° |
| 2026-04-14 10:58 | 47.75689 | 105.06872 | 33729 ft | 387 kts | 302° |
| 2026-04-14 10:58 | 47.78950 | 105.00503 | 33736 ft | 387 kts | 302° |
| 2026-04-14 10:59 | 47.82172 | 104.94119 | 33743 ft | 386 kts | 301° |
| 2026-04-14 10:59 | 47.85348 | 104.87679 | 33744 ft | 385 kts | 301° |
| 2026-04-14 11:00 | 47.88506 | 104.81253 | 33749 ft | 384 kts | 301° |
| 2026-04-14 11:00 | 47.91647 | 104.74876 | 33754 ft | 384 kts | 301° |
| 2026-04-14 11:01 | 47.94811 | 104.68442 | 33754 ft | 384 kts | 300° |
| 2026-04-14 11:01 | 47.97959 | 104.62013 | 33760 ft | 384 kts | 300° |
| 2026-04-14 11:02 | 48.01106 | 104.55571 | 33759 ft | 384 kts | 300° |
| 2026-04-14 11:02 | 48.04254 | 104.49119 | 33810 ft | 384 kts | 300° |
| 2026-04-14 11:03 | 48.07373 | 104.42717 | 33770 ft | 383 kts | 300° |
| 2026-04-14 11:03 | 48.10508 | 104.36277 | 33782 ft | 383 kts | 300° |
| 2026-04-14 11:04 | 48.13647 | 104.29815 | 33782 ft | 383 kts | 300° |
| 2026-04-14 11:04 | 48.16512 | 104.23882 | 33777 ft | 383 kts | 300° |
| 2026-04-14 11:05 | 48.17367 | 104.22110 | 33776 ft | 383 kts | 300° |
| 2026-04-14 11:05 | 48.20499 | 104.15611 | 33774 ft | 384 kts | 300° |
| 2026-04-14 11:05 | 48.22065 | 104.12360 | 33653 ft | 384 kts | 303° |
| 2026-04-14 11:06 | 48.23609 | 104.09149 | 33781 ft | 386 kts | 302° |
| 2026-04-14 11:06 | 48.26785 | 104.02516 | 33794 ft | 396 kts | 302° |
| 2026-04-14 11:07 | 48.30044 | 103.95707 | 33797 ft | 406 kts | 302° |
| 2026-04-14 11:07 | 48.33369 | 103.88752 | 33803 ft | 411 kts | 302° |
| 2026-04-14 11:08 | 48.36699 | 103.81768 | 33805 ft | 410 kts | 302° |
| 2026-04-14 11:08 | 48.40022 | 103.74778 | 33816 ft | 410 kts | 302° |
| 2026-04-14 11:09 | 48.43329 | 103.67802 | 33819 ft | 409 kts | 302° |
| 2026-04-14 11:09 | 48.46605 | 103.60876 | 33816 ft | 409 kts | 302° |
| 2026-04-14 11:10 | 48.51540 | 103.50408 | 33828 ft | 408 kts | 301° |
| 2026-04-14 11:10 | 48.54808 | 103.43434 | 33838 ft | 407 kts | 301° |
| 2026-04-14 11:11 | 48.58070 | 103.36461 | 33840 ft | 406 kts | 301° |
| 2026-04-14 11:11 | 48.61381 | 103.29544 | 33848 ft | 406 kts | 302° |
| 2026-04-14 11:12 | 48.64761 | 103.22699 | 33850 ft | 406 kts | 303° |
| 2026-04-14 11:12 | 48.68133 | 103.15847 | 33855 ft | 406 kts | 302° |
| 2026-04-14 11:13 | 48.71488 | 103.08963 | 33867 ft | 406 kts | 302° |
| 2026-04-14 11:13 | 48.74802 | 103.02121 | 33874 ft | 405 kts | 302° |
| 2026-04-14 11:14 | 48.78147 | 102.95183 | 33876 ft | 404 kts | 302° |
| 2026-04-14 11:14 | 48.81446 | 102.88340 | 33880 ft | 404 kts | 302° |
| 2026-04-14 11:15 | 48.84765 | 102.81464 | 33881 ft | 404 kts | 302° |
| 2026-04-14 11:15 | 48.88076 | 102.74578 | 33886 ft | 403 kts | 302° |
| 2026-04-14 11:16 | 48.91370 | 102.67691 | 33893 ft | 403 kts | 302° |
| 2026-04-14 11:16 | 48.94664 | 102.60793 | 33894 ft | 402 kts | 302° |
| 2026-04-14 11:17 | 48.97947 | 102.53905 | 33891 ft | 402 kts | 302° |
| 2026-04-14 11:17 | 49.01214 | 102.47016 | 33897 ft | 401 kts | 302° |
| 2026-04-14 11:18 | 49.04483 | 102.40118 | 33896 ft | 401 kts | 302° |
| 2026-04-14 11:18 | 49.07742 | 102.33233 | 33888 ft | 400 kts | 302° |
| 2026-04-14 11:19 | 49.10976 | 102.26374 | 33882 ft | 400 kts | 302° |
| 2026-04-14 11:19 | 49.14220 | 102.19470 | 33886 ft | 400 kts | 302° |
| 2026-04-14 11:20 | 49.17463 | 102.12560 | 33884 ft | 399 kts | 302° |
| 2026-04-14 11:20 | 49.20690 | 102.05658 | 33888 ft | 398 kts | 301° |
| 2026-04-14 11:21 | 49.23892 | 101.98788 | 33884 ft | 398 kts | 301° |
| 2026-04-14 11:21 | 49.27113 | 101.91882 | 33882 ft | 398 kts | 301° |
| 2026-04-14 11:22 | 49.30323 | 101.84974 | 33881 ft | 398 kts | 301° |
| 2026-04-14 11:22 | 49.33532 | 101.78041 | 33885 ft | 398 kts | 301° |
| 2026-04-14 11:23 | 49.36194 | 101.72275 | 33884 ft | 398 kts | 301° |
| 2026-04-14 11:23 | 49.39399 | 101.65323 | 33889 ft | 398 kts | 301° |
| 2026-04-14 11:24 | 49.43112 | 101.57242 | 33891 ft | 398 kts | 301° |
| 2026-04-14 11:24 | 49.45789 | 101.51398 | 33892 ft | 398 kts | 301° |
| 2026-04-14 11:25 | 49.48953 | 101.44474 | 33888 ft | 398 kts | 301° |
| 2026-04-14 11:25 | 49.52142 | 101.37497 | 33897 ft | 398 kts | 301° |
| 2026-04-14 11:26 | 49.55320 | 101.30515 | 33897 ft | 398 kts | 301° |
| 2026-04-14 11:26 | 49.58498 | 101.23519 | 33913 ft | 399 kts | 301° |
| 2026-04-14 11:27 | 49.61673 | 101.16501 | 33918 ft | 399 kts | 301° |
| 2026-04-14 11:27 | 49.64842 | 101.09467 | 33926 ft | 399 kts | 301° |
| 2026-04-14 11:28 | 49.66997 | 101.04673 | 33932 ft | 398 kts | 301° |
| 2026-04-14 11:28 | 49.70158 | 100.97649 | 33938 ft | 398 kts | 301° |
| 2026-04-14 11:29 | 49.73317 | 100.90613 | 33944 ft | 398 kts | 301° |
| 2026-04-14 11:29 | 49.76465 | 100.83555 | 33961 ft | 398 kts | 301° |
| 2026-04-14 11:30 | 49.79589 | 100.76540 | 33964 ft | 398 kts | 301° |
| 2026-04-14 11:30 | 49.82727 | 100.69472 | 33974 ft | 399 kts | 301° |
| 2026-04-14 11:31 | 49.85869 | 100.62384 | 33989 ft | 399 kts | 301° |
| 2026-04-14 11:31 | 49.89004 | 100.55292 | 33993 ft | 399 kts | 301° |
| 2026-04-14 11:32 | 49.92134 | 100.48194 | 33995 ft | 399 kts | 301° |
| 2026-04-14 11:32 | 49.95268 | 100.41081 | 34006 ft | 399 kts | 301° |
| 2026-04-14 11:33 | 49.98399 | 100.33965 | 34012 ft | 399 kts | 300° |
| 2026-04-14 11:34 | 50.03051 | 100.23250 | 34003 ft | 402 kts | 300° |
| 2026-04-14 11:34 | 50.06164 | 100.15938 | 34017 ft | 409 kts | 300° |
| 2026-04-14 11:35 | 50.09322 | 100.08502 | 34019 ft | 414 kts | 300° |
| 2026-04-14 11:35 | 50.12497 | 100.01053 | 34027 ft | 416 kts | 300° |
| 2026-04-14 11:36 | 50.15695 | 99.93523 | 34037 ft | 416 kts | 300° |
| 2026-04-14 11:36 | 50.18891 | 99.85972 | 34050 ft | 417 kts | 300° |
| 2026-04-14 11:37 | 50.22083 | 99.78405 | 34063 ft | 418 kts | 300° |
| 2026-04-14 11:37 | 50.25278 | 99.70823 | 34080 ft | 418 kts | 300° |
| 2026-04-14 11:38 | 50.28470 | 99.63236 | 34087 ft | 418 kts | 300° |
| 2026-04-14 11:38 | 50.31659 | 99.55623 | 34099 ft | 418 kts | 300° |
| 2026-04-14 11:39 | 50.34834 | 99.47990 | 34102 ft | 418 kts | 300° |
| 2026-04-14 11:39 | 50.38005 | 99.40353 | 34112 ft | 419 kts | 300° |
| 2026-04-14 11:40 | 50.41183 | 99.32703 | 34097 ft | 419 kts | 300° |
| 2026-04-14 11:40 | 50.44342 | 99.25064 | 34130 ft | 421 kts | 299° |
| 2026-04-14 11:41 | 50.47515 | 99.17358 | 34114 ft | 421 kts | 299° |
| 2026-04-14 11:41 | 50.50699 | 99.09619 | 34123 ft | 422 kts | 299° |
| 2026-04-14 11:42 | 50.53884 | 99.01857 | 34131 ft | 423 kts | 299° |
| 2026-04-14 11:42 | 50.57065 | 98.94078 | 34142 ft | 423 kts | 299° |
| 2026-04-14 11:43 | 50.60243 | 98.86271 | 34148 ft | 424 kts | 299° |
| 2026-04-14 11:43 | 50.63424 | 98.78441 | 34165 ft | 424 kts | 299° |
| 2026-04-14 11:44 | 50.66598 | 98.70606 | 34172 ft | 424 kts | 299° |
| 2026-04-14 11:44 | 50.69753 | 98.62810 | 34180 ft | 425 kts | 299° |
| 2026-04-14 11:45 | 50.72922 | 98.54923 | 34194 ft | 425 kts | 299° |
| 2026-04-14 11:45 | 50.76082 | 98.47052 | 34201 ft | 425 kts | 299° |
| 2026-04-14 11:46 | 50.79244 | 98.39148 | 34203 ft | 425 kts | 299° |
| 2026-04-14 11:46 | 50.80805 | 98.35244 | 34199 ft | 414 kts | 299° |
| 2026-04-14 11:46 | 50.82333 | 98.31411 | 34201 ft | 411 kts | 299° |
| 2026-04-14 11:47 | 50.85365 | 98.23779 | 34202 ft | 409 kts | 299° |
| 2026-04-14 11:47 | 50.88387 | 98.16157 | 34202 ft | 408 kts | 299° |
| 2026-04-14 11:48 | 50.91406 | 98.08532 | 34200 ft | 408 kts | 299° |
| 2026-04-14 11:48 | 50.92912 | 98.04714 | 34093 ft | 408 kts | 299° |
| 2026-04-14 11:48 | 50.94394 | 98.00951 | 34097 ft | 408 kts | 299° |
| 2026-04-14 11:49 | 50.97396 | 97.93321 | 34101 ft | 408 kts | 299° |
| 2026-04-14 11:49 | 51.00329 | 97.85628 | 34104 ft | 406 kts | 294° |
| 2026-04-14 11:50 | 51.02843 | 97.77598 | 34109 ft | 406 kts | 294° |
| 2026-04-14 11:50 | 51.05365 | 97.69566 | 34111 ft | 406 kts | 294° |
| 2026-04-14 11:51 | 51.09125 | 97.57500 | 34119 ft | 406 kts | 294° |
| 2026-04-14 11:51 | 51.11626 | 97.49433 | 34132 ft | 406 kts | 294° |
| 2026-04-14 11:52 | 51.14104 | 97.41415 | 34136 ft | 406 kts | 294° |
| 2026-04-14 11:52 | 51.16595 | 97.33359 | 34146 ft | 405 kts | 294° |
| 2026-04-14 11:53 | 51.19082 | 97.25297 | 34151 ft | 405 kts | 294° |
| 2026-04-14 11:53 | 51.21556 | 97.17226 | 34152 ft | 405 kts | 294° |
| 2026-04-14 11:54 | 51.24021 | 97.09131 | 34161 ft | 405 kts | 294° |
| 2026-04-14 11:54 | 51.26486 | 97.01035 | 34161 ft | 404 kts | 294° |
| 2026-04-14 11:55 | 51.28938 | 96.92951 | 34166 ft | 404 kts | 294° |
| 2026-04-14 11:55 | 51.31373 | 96.84909 | 34171 ft | 404 kts | 294° |
| 2026-04-14 11:56 | 51.33812 | 96.76814 | 34169 ft | 404 kts | 294° |
| 2026-04-14 11:56 | 51.36256 | 96.68696 | 34167 ft | 404 kts | 294° |
| 2026-04-14 11:57 | 51.38689 | 96.60570 | 34160 ft | 405 kts | 294° |
| 2026-04-14 11:57 | 51.41122 | 96.52416 | 34157 ft | 406 kts | 293° |
| 2026-04-14 11:58 | 51.43544 | 96.44242 | 34156 ft | 407 kts | 293° |
| 2026-04-14 11:58 | 51.45979 | 96.36038 | 34160 ft | 408 kts | 293° |
| 2026-04-14 11:59 | 51.48392 | 96.27859 | 34162 ft | 409 kts | 293° |
| 2026-04-14 11:59 | 51.50816 | 96.19604 | 34165 ft | 410 kts | 293° |
| 2026-04-14 12:00 | 51.53245 | 96.11322 | 34165 ft | 410 kts | 294° |
| 2026-04-14 12:00 | 51.55676 | 96.03021 | 34173 ft | 410 kts | 294° |
| 2026-04-14 12:01 | 51.58095 | 95.94718 | 34174 ft | 410 kts | 294° |
| 2026-04-14 12:01 | 51.60515 | 95.86401 | 34183 ft | 410 kts | 294° |
| 2026-04-14 12:02 | 51.62921 | 95.78086 | 34189 ft | 410 kts | 294° |
| 2026-04-14 12:02 | 51.65322 | 95.69764 | 34194 ft | 409 kts | 294° |
| 2026-04-14 12:03 | 51.67711 | 95.61443 | 34202 ft | 409 kts | 294° |
| 2026-04-14 12:03 | 51.70085 | 95.53129 | 34214 ft | 408 kts | 294° |
| 2026-04-14 12:04 | 51.72450 | 95.44830 | 34219 ft | 407 kts | 294° |
| 2026-04-14 12:04 | 51.74802 | 95.36547 | 34218 ft | 405 kts | 294° |
| 2026-04-14 12:05 | 51.77129 | 95.28328 | 34219 ft | 405 kts | 294° |
| 2026-04-14 12:05 | 51.79476 | 95.20012 | 34216 ft | 404 kts | 294° |
| 2026-04-14 12:06 | 51.81789 | 95.11798 | 34210 ft | 404 kts | 294° |
| 2026-04-14 12:06 | 51.84111 | 95.03511 | 34217 ft | 404 kts | 294° |
| 2026-04-14 12:07 | 51.86432 | 94.95206 | 34223 ft | 405 kts | 294° |
| 2026-04-14 12:07 | 51.88749 | 94.86895 | 34223 ft | 405 kts | 294° |
| 2026-04-14 12:08 | 51.91060 | 94.78564 | 34222 ft | 405 kts | 293° |
| 2026-04-14 12:08 | 51.93348 | 94.70275 | 34229 ft | 406 kts | 293° |
| 2026-04-14 12:09 | 51.95640 | 94.61917 | 34233 ft | 406 kts | 293° |
| 2026-04-14 12:09 | 51.97935 | 94.53519 | 34241 ft | 407 kts | 293° |
| 2026-04-14 12:10 | 52.00229 | 94.45125 | 34245 ft | 407 kts | 293° |
| 2026-04-14 12:10 | 52.02137 | 94.38127 | 34245 ft | 408 kts | 293° |
| 2026-04-14 12:11 | 52.04428 | 94.29693 | 34247 ft | 408 kts | 293° |
| 2026-04-14 12:11 | 52.06722 | 94.21248 | 34253 ft | 409 kts | 293° |
| 2026-04-14 12:12 | 52.09006 | 94.12769 | 34258 ft | 409 kts | 293° |
| 2026-04-14 12:12 | 52.11286 | 94.04290 | 34260 ft | 409 kts | 293° |
| 2026-04-14 12:13 | 52.13565 | 93.95780 | 34267 ft | 410 kts | 293° |
| 2026-04-14 12:13 | 52.15826 | 93.87324 | 34267 ft | 410 kts | 294° |
| 2026-04-14 12:14 | 52.18166 | 93.78855 | 34272 ft | 410 kts | 294° |
| 2026-04-14 12:14 | 52.20517 | 93.70393 | 34278 ft | 410 kts | 294° |
| 2026-04-14 12:15 | 52.22853 | 93.61914 | 34279 ft | 410 kts | 294° |
| 2026-04-14 12:15 | 52.25174 | 93.53417 | 34282 ft | 410 kts | 294° |
| 2026-04-14 12:16 | 52.27483 | 93.44926 | 34278 ft | 409 kts | 294° |
| 2026-04-14 12:16 | 52.29797 | 93.36428 | 34283 ft | 409 kts | 294° |
| 2026-04-14 12:17 | 52.32106 | 93.27919 | 34288 ft | 409 kts | 294° |
| 2026-04-14 12:17 | 52.34397 | 93.19412 | 34285 ft | 408 kts | 294° |
| 2026-04-14 12:18 | 52.36687 | 93.10911 | 34283 ft | 408 kts | 294° |
| 2026-04-14 12:18 | 52.38964 | 93.02403 | 34287 ft | 408 kts | 294° |
| 2026-04-14 12:19 | 52.41228 | 92.93890 | 34287 ft | 407 kts | 294° |
| 2026-04-14 12:19 | 52.43489 | 92.85386 | 34292 ft | 407 kts | 294° |
| 2026-04-14 12:20 | 52.45728 | 92.76925 | 34294 ft | 407 kts | 294° |
| 2026-04-14 12:20 | 52.47964 | 92.68414 | 34289 ft | 406 kts | 294° |
| 2026-04-14 12:21 | 52.50195 | 92.59903 | 34284 ft | 406 kts | 294° |
| 2026-04-14 12:21 | 52.52423 | 92.51401 | 34280 ft | 405 kts | 294° |
| 2026-04-14 12:22 | 52.54646 | 92.42898 | 34281 ft | 405 kts | 294° |
| 2026-04-14 12:22 | 52.56859 | 92.34376 | 34284 ft | 405 kts | 294° |
| 2026-04-14 12:23 | 52.59062 | 92.25850 | 34283 ft | 405 kts | 294° |
| 2026-04-14 12:23 | 52.61263 | 92.17321 | 34278 ft | 405 kts | 294° |
| 2026-04-14 12:24 | 52.63456 | 92.08780 | 34279 ft | 405 kts | 294° |
| 2026-04-14 12:24 | 52.65649 | 92.00229 | 34282 ft | 405 kts | 294° |
| 2026-04-14 12:25 | 52.67829 | 91.91671 | 34284 ft | 405 kts | 294° |
| 2026-04-14 12:25 | 52.69978 | 91.83222 | 34285 ft | 405 kts | 294° |
| 2026-04-14 12:26 | 52.72149 | 91.74656 | 34288 ft | 405 kts | 294° |
| 2026-04-14 12:26 | 52.74311 | 91.66061 | 34291 ft | 405 kts | 294° |
| 2026-04-14 12:27 | 52.76446 | 91.57524 | 34293 ft | 405 kts | 294° |
| 2026-04-14 12:27 | 52.78594 | 91.48931 | 34292 ft | 404 kts | 293° |
| 2026-04-14 12:28 | 52.80729 | 91.40337 | 34288 ft | 404 kts | 293° |
| 2026-04-14 12:28 | 52.82858 | 91.31741 | 34288 ft | 404 kts | 293° |
| 2026-04-14 12:29 | 52.84978 | 91.23133 | 34290 ft | 403 kts | 293° |
| 2026-04-14 12:29 | 52.87098 | 91.14542 | 34288 ft | 403 kts | 293° |
| 2026-04-14 12:30 | 52.89195 | 91.05998 | 34289 ft | 403 kts | 293° |
| 2026-04-14 12:30 | 52.91293 | 90.97402 | 34290 ft | 403 kts | 293° |
| 2026-04-14 12:31 | 52.93382 | 90.88778 | 34291 ft | 403 kts | 293° |
| 2026-04-14 12:31 | 52.95462 | 90.80157 | 34291 ft | 402 kts | 293° |
| 2026-04-14 12:32 | 52.97536 | 90.71535 | 34289 ft | 402 kts | 293° |
| 2026-04-14 12:32 | 52.99610 | 90.62909 | 34287 ft | 402 kts | 293° |
| 2026-04-14 12:33 | 53.01676 | 90.54277 | 34289 ft | 402 kts | 293° |
| 2026-04-14 12:33 | 53.03734 | 90.45655 | 34293 ft | 402 kts | 293° |
| 2026-04-14 12:34 | 53.05785 | 90.37023 | 34293 ft | 401 kts | 293° |
| 2026-04-14 12:34 | 53.07824 | 90.28386 | 34299 ft | 401 kts | 293° |
| 2026-04-14 12:35 | 53.09855 | 90.19746 | 34307 ft | 401 kts | 293° |
| 2026-04-14 12:35 | 53.11879 | 90.11101 | 34312 ft | 400 kts | 292° |
| 2026-04-14 12:36 | 53.13892 | 90.02471 | 34312 ft | 400 kts | 293° |
| 2026-04-14 12:36 | 53.15899 | 89.93834 | 34313 ft | 399 kts | 292° |
| 2026-04-14 12:37 | 53.17898 | 89.85206 | 34314 ft | 399 kts | 292° |
| 2026-04-14 12:37 | 53.19879 | 89.76639 | 34312 ft | 399 kts | 292° |
| 2026-04-14 12:38 | 53.22844 | 89.63675 | 34317 ft | 398 kts | 292° |
| 2026-04-14 12:39 | 53.24819 | 89.55037 | 34319 ft | 398 kts | 292° |
| 2026-04-14 12:39 | 53.26781 | 89.46388 | 34320 ft | 398 kts | 292° |
| 2026-04-14 12:40 | 53.28739 | 89.37724 | 34317 ft | 398 kts | 292° |
| 2026-04-14 12:40 | 53.30697 | 89.29063 | 34321 ft | 398 kts | 292° |
| 2026-04-14 12:41 | 53.32637 | 89.20396 | 34325 ft | 398 kts | 292° |
| 2026-04-14 12:41 | 53.34576 | 89.11728 | 34328 ft | 398 kts | 292° |
| 2026-04-14 12:42 | 53.36511 | 89.03049 | 34326 ft | 398 kts | 292° |
| 2026-04-14 12:42 | 53.38437 | 88.94360 | 34328 ft | 398 kts | 292° |
| 2026-04-14 12:43 | 53.40347 | 88.85672 | 34326 ft | 398 kts | 292° |
| 2026-04-14 12:43 | 53.42230 | 88.76955 | 34324 ft | 398 kts | 291° |
| 2026-04-14 12:44 | 53.44096 | 88.68222 | 34321 ft | 398 kts | 291° |
| 2026-04-14 12:44 | 53.45952 | 88.59545 | 34321 ft | 398 kts | 291° |
| 2026-04-14 12:45 | 53.48738 | 88.46431 | 34314 ft | 397 kts | 291° |
| 2026-04-14 12:45 | 53.50587 | 88.37679 | 34314 ft | 397 kts | 291° |
| 2026-04-14 12:46 | 53.52428 | 88.28930 | 34306 ft | 397 kts | 291° |
| 2026-04-14 12:46 | 53.54267 | 88.20172 | 34306 ft | 397 kts | 291° |
| 2026-04-14 12:47 | 53.56104 | 88.11407 | 34304 ft | 397 kts | 291° |
| 2026-04-14 12:47 | 53.57923 | 88.02640 | 34305 ft | 397 kts | 291° |
| 2026-04-14 12:48 | 53.59736 | 87.93845 | 34303 ft | 397 kts | 291° |
| 2026-04-14 12:48 | 53.61546 | 87.85060 | 34301 ft | 397 kts | 291° |
| 2026-04-14 12:49 | 53.63350 | 87.76267 | 34300 ft | 397 kts | 291° |
| 2026-04-14 12:49 | 53.65135 | 87.67527 | 34298 ft | 397 kts | 291° |
| 2026-04-14 12:50 | 53.67817 | 87.54330 | 34292 ft | 397 kts | 291° |
| 2026-04-14 12:51 | 53.69597 | 87.45524 | 34289 ft | 397 kts | 291° |
| 2026-04-14 12:51 | 53.71371 | 87.36712 | 34282 ft | 397 kts | 291° |
| 2026-04-14 12:52 | 53.73130 | 87.27918 | 34272 ft | 397 kts | 291° |
| 2026-04-14 12:52 | 53.74897 | 87.19050 | 34267 ft | 396 kts | 291° |
| 2026-04-14 12:53 | 53.76646 | 87.10218 | 34263 ft | 396 kts | 290° |
| 2026-04-14 12:53 | 53.78391 | 87.01372 | 34259 ft | 396 kts | 290° |
| 2026-04-14 12:54 | 53.80128 | 86.92524 | 34258 ft | 396 kts | 290° |
| 2026-04-14 12:54 | 53.82181 | 86.83909 | 34255 ft | 394 kts | 297° |
| 2026-04-14 12:55 | 53.84202 | 86.76996 | 34260 ft | 394 kts | 297° |
| 2026-04-14 12:55 | 53.86627 | 86.68669 | 34262 ft | 394 kts | 297° |
| 2026-04-14 12:56 | 53.89042 | 86.60336 | 34267 ft | 394 kts | 297° |
| 2026-04-14 12:56 | 53.91446 | 86.51968 | 34270 ft | 394 kts | 297° |
| 2026-04-14 12:57 | 53.93838 | 86.43614 | 34272 ft | 394 kts | 297° |
| 2026-04-14 12:57 | 53.96228 | 86.35235 | 34275 ft | 394 kts | 297° |
| 2026-04-14 12:58 | 53.98609 | 86.26860 | 34278 ft | 394 kts | 297° |
| 2026-04-14 12:58 | 54.00992 | 86.18466 | 34271 ft | 394 kts | 297° |
| 2026-04-14 12:59 | 54.03378 | 86.10086 | 34272 ft | 394 kts | 297° |
| 2026-04-14 12:59 | 54.05739 | 86.01741 | 34270 ft | 394 kts | 297° |
| 2026-04-14 13:00 | 54.08120 | 85.93285 | 34268 ft | 394 kts | 297° |
| 2026-04-14 13:00 | 54.10473 | 85.84906 | 34277 ft | 394 kts | 297° |
| 2026-04-14 13:01 | 54.12829 | 85.76483 | 34270 ft | 394 kts | 296° |
| 2026-04-14 13:01 | 54.15176 | 85.68042 | 34278 ft | 394 kts | 296° |
| 2026-04-14 13:02 | 54.17520 | 85.59598 | 34278 ft | 393 kts | 296° |
| 2026-04-14 13:02 | 54.19853 | 85.51149 | 34272 ft | 393 kts | 296° |
| 2026-04-14 13:03 | 54.22178 | 85.42690 | 34268 ft | 393 kts | 296° |
| 2026-04-14 13:03 | 54.24409 | 85.34168 | 34273 ft | 393 kts | 293° |
| 2026-04-14 13:04 | 54.26325 | 85.25393 | 34272 ft | 394 kts | 291° |
| 2026-04-14 13:04 | 54.27228 | 85.21022 | 34114 ft | 395 kts | 291° |
| 2026-04-14 13:04 | 54.28134 | 85.16638 | 33823 ft | 386 kts | 291° |
| 2026-04-14 13:04 | 54.29027 | 85.12377 | 33545 ft | 375 kts | 291° |
| 2026-04-14 13:05 | 54.29909 | 85.08240 | 33294 ft | 365 kts | 292° |
| 2026-04-14 13:05 | 54.30776 | 85.04214 | 32884 ft | 358 kts | 292° |
| 2026-04-14 13:05 | 54.31635 | 85.00244 | 32402 ft | 353 kts | 292° |
| 2026-04-14 13:05 | 54.32482 | 84.96318 | 31953 ft | 348 kts | 291° |
| 2026-04-14 13:06 | 54.33314 | 84.92466 | 31335 ft | 341 kts | 291° |
| 2026-04-14 13:06 | 54.34143 | 84.88622 | 29747 ft | 347 kts | 291° |
| 2026-04-14 13:06 | 54.34983 | 84.84707 | 28315 ft | 349 kts | 291° |
| 2026-04-14 13:06 | 54.35361 | 84.82936 | 28073 ft | 347 kts | 291° |
| 2026-04-14 13:07 | 54.35945 | 84.80212 | 27977 ft | 351 kts | 291° |
| 2026-04-14 13:07 | 54.36779 | 84.76290 | 27652 ft | 353 kts | 291° |
| 2026-04-14 13:08 | 54.37628 | 84.72283 | 27101 ft | 367 kts | 291° |
| 2026-04-14 13:08 | 54.38526 | 84.68045 | 26569 ft | 388 kts | 290° |
| 2026-04-14 13:08 | 54.39474 | 84.63565 | 26002 ft | 409 kts | 290° |
| 2026-04-14 13:08 | 54.40453 | 84.58913 | 25402 ft | 416 kts | 290° |
| 2026-04-14 13:09 | 54.41429 | 84.54252 | 24780 ft | 413 kts | 290° |
| 2026-04-14 13:09 | 54.42374 | 84.49723 | 24036 ft | 391 kts | 290° |
| 2026-04-14 13:09 | 54.43246 | 84.45551 | 23668 ft | 359 kts | 290° |
| 2026-04-14 13:09 | 54.44051 | 84.41698 | 23372 ft | 328 kts | 290° |
| 2026-04-14 13:10 | 54.44796 | 84.38133 | 23090 ft | 310 kts | 290° |
| 2026-04-14 13:10 | 54.45515 | 84.34693 | 22699 ft | 304 kts | 290° |
| 2026-04-14 13:10 | 54.46227 | 84.31283 | 22184 ft | 301 kts | 290° |
| 2026-04-14 13:10 | 54.46933 | 84.27899 | 21689 ft | 299 kts | 290° |
| 2026-04-14 13:11 | 54.47625 | 84.24560 | 21314 ft | 294 kts | 290° |
| 2026-04-14 13:11 | 54.48302 | 84.21287 | 20959 ft | 288 kts | 290° |
| 2026-04-14 13:11 | 54.48968 | 84.18070 | 20622 ft | 282 kts | 290° |
| 2026-04-14 13:11 | 54.49625 | 84.14924 | 20291 ft | 276 kts | 292° |
| 2026-04-14 13:12 | 54.50469 | 84.11987 | 19951 ft | 271 kts | 300° |
| 2026-04-14 13:12 | 54.51498 | 84.09302 | 19608 ft | 267 kts | 302° |
| 2026-04-14 13:12 | 54.52521 | 84.06670 | 19272 ft | 263 kts | 302° |
| 2026-04-14 13:12 | 54.53529 | 84.04063 | 18953 ft | 261 kts | 302° |
| 2026-04-14 13:13 | 54.54531 | 84.01464 | 18617 ft | 260 kts | 302° |
| 2026-04-14 13:13 | 54.55525 | 83.98877 | 18260 ft | 259 kts | 302° |
| 2026-04-14 13:13 | 54.56517 | 83.96294 | 17920 ft | 258 kts | 302° |
| 2026-04-14 13:13 | 54.57508 | 83.93712 | 17583 ft | 257 kts | 302° |
| 2026-04-14 13:14 | 54.58496 | 83.91145 | 17253 ft | 257 kts | 302° |
| 2026-04-14 13:14 | 54.59480 | 83.88578 | 16908 ft | 256 kts | 302° |
| 2026-04-14 13:14 | 54.60455 | 83.86024 | 16575 ft | 255 kts | 302° |
| 2026-04-14 13:14 | 54.61433 | 83.83461 | 16236 ft | 255 kts | 302° |
| 2026-04-14 13:15 | 54.62408 | 83.80912 | 15887 ft | 254 kts | 302° |
| 2026-04-14 13:15 | 54.63369 | 83.78401 | 15544 ft | 254 kts | 302° |
| 2026-04-14 13:15 | 54.64341 | 83.75860 | 15197 ft | 253 kts | 302° |
| 2026-04-14 13:15 | 54.65308 | 83.73326 | 14836 ft | 253 kts | 302° |
| 2026-04-14 13:16 | 54.66276 | 83.70790 | 14484 ft | 252 kts | 302° |
| 2026-04-14 13:16 | 54.67238 | 83.68265 | 14126 ft | 252 kts | 302° |
| 2026-04-14 13:16 | 54.68197 | 83.65743 | 13722 ft | 251 kts | 302° |
| 2026-04-14 13:16 | 54.69156 | 83.63217 | 13353 ft | 250 kts | 302° |
| 2026-04-14 13:17 | 54.70108 | 83.60714 | 12983 ft | 249 kts | 302° |
| 2026-04-14 13:17 | 54.71100 | 83.58195 | 12381 ft | 270 kts | 304° |
| 2026-04-14 13:17 | 54.72277 | 83.55433 | 11584 ft | 293 kts | 306° |
| 2026-04-14 13:17 | 54.73494 | 83.52678 | 10982 ft | 279 kts | 306° |
| 2026-04-14 13:18 | 54.74648 | 83.50106 | 10444 ft | 265 kts | 306° |
| 2026-04-14 13:18 | 54.75761 | 83.47620 | 10168 ft | 259 kts | 306° |
| 2026-04-14 13:18 | 54.76857 | 83.45153 | 10033 ft | 259 kts | 306° |
| 2026-04-14 13:18 | 54.77948 | 83.42681 | 9886 ft | 258 kts | 306° |
| 2026-04-14 13:19 | 54.79033 | 83.40207 | 9744 ft | 257 kts | 306° |
| 2026-04-14 13:19 | 54.80113 | 83.37737 | 9611 ft | 257 kts | 306° |
| 2026-04-14 13:19 | 54.81189 | 83.35274 | 9464 ft | 256 kts | 306° |
| 2026-04-14 13:19 | 54.82261 | 83.32813 | 9333 ft | 256 kts | 306° |
| 2026-04-14 13:20 | 54.83315 | 83.30394 | 9184 ft | 245 kts | 306° |
| 2026-04-14 13:20 | 54.84322 | 83.28085 | 8966 ft | 237 kts | 306° |
| 2026-04-14 13:20 | 54.85303 | 83.25830 | 8659 ft | 231 kts | 306° |
| 2026-04-14 13:20 | 54.86262 | 83.23616 | 8331 ft | 227 kts | 306° |
| 2026-04-14 13:21 | 54.87203 | 83.21443 | 8036 ft | 223 kts | 306° |
| 2026-04-14 13:21 | 54.88129 | 83.19300 | 7731 ft | 221 kts | 306° |
| 2026-04-14 13:21 | 54.89041 | 83.17185 | 7442 ft | 216 kts | 306° |
| 2026-04-14 13:21 | 54.89931 | 83.15126 | 7128 ft | 211 kts | 306° |
| 2026-04-14 13:22 | 54.90805 | 83.13106 | 6761 ft | 210 kts | 307° |
| 2026-04-14 13:22 | 54.91688 | 83.11068 | 6337 ft | 210 kts | 306° |
| 2026-04-14 13:22 | 54.92555 | 83.09061 | 6008 ft | 206 kts | 306° |
| 2026-04-14 13:22 | 54.93438 | 83.07135 | 5715 ft | 203 kts | 309° |
| 2026-04-14 13:23 | 54.94357 | 83.05307 | 5449 ft | 196 kts | 310° |
| 2026-04-14 13:23 | 54.95248 | 83.03576 | 5176 ft | 187 kts | 309° |
| 2026-04-14 13:23 | 54.96102 | 83.01919 | 4912 ft | 181 kts | 309° |
| 2026-04-14 13:23 | 54.96924 | 83.00316 | 4649 ft | 176 kts | 309° |
| 2026-04-14 13:24 | 54.97741 | 82.98716 | 4413 ft | 177 kts | 309° |
| 2026-04-14 13:24 | 54.99362 | 82.95532 | 3918 ft | 172 kts | 309° |
| 2026-04-14 13:24 | 55.00146 | 82.93988 | 3678 ft | 168 kts | 309° |
| 2026-04-14 13:25 | 55.00916 | 82.92470 | 3432 ft | 165 kts | 309° |
| 2026-04-14 13:25 | 55.01664 | 82.90996 | 3226 ft | 159 kts | 309° |
| 2026-04-14 13:26 | 55.03068 | 82.86250 | 2585 ft | 141 kts | 262° |
| 2026-04-14 13:26 | 55.02942 | 82.84578 | 2418 ft | 138 kts | 263° |
| 2026-04-14 13:26 | 55.02822 | 82.82941 | 2234 ft | 136 kts | 262° |
| 2026-04-14 13:26 | 55.02689 | 82.81308 | 2050 ft | 136 kts | 261° |
| 2026-04-14 13:27 | 55.02549 | 82.79678 | 1849 ft | 136 kts | 261° |
| 2026-04-14 13:27 | 55.02407 | 82.78049 | 1657 ft | 136 kts | 261° |
| 2026-04-14 13:27 | 55.02263 | 82.76416 | 1455 ft | 136 kts | 261° |
| 2026-04-14 13:27 | 55.02114 | 82.74777 | 1228 ft | 137 kts | 260° |
| 2026-04-14 13:28 | 55.01964 | 82.73132 | 990 ft | 138 kts | 260° |
| 2026-04-14 13:28 | 55.01824 | 82.71482 | 843 ft | 138 kts | 259° |
| 2026-04-14 13:28 | 55.01682 | 82.69823 | 656 ft | 138 kts | 258° |
| 2026-04-14 13:28 | 55.01528 | 82.68168 | 454 ft | 138 kts | 260° |
| 2026-04-14 13:29 | 55.01367 | 82.66552 | 377 ft | 128 kts | 266° |
| 2026-04-14 13:29 | 55.01229 | 82.64781 | 644 ft | 162 kts | 260° |
| 2026-04-14 13:29 | 55.01044 | 82.62818 | 1583 ft | 165 kts | 261° |
| 2026-04-14 13:29 | 55.00865 | 82.60867 | 2405 ft | 161 kts | 261° |
| 2026-04-14 13:30 | 55.00689 | 82.58948 | 2920 ft | 161 kts | 261° |
| 2026-04-14 13:30 | 55.00475 | 82.57030 | 3419 ft | 162 kts | 251° |
| 2026-04-14 13:30 | 54.99758 | 82.55486 | 3827 ft | 170 kts | 214° |
| 2026-04-14 13:30 | 54.98604 | 82.55042 | 4335 ft | 177 kts | 177° |
| 2026-04-14 13:31 | 54.97501 | 82.56016 | 4802 ft | 186 kts | 135° |
| 2026-04-14 13:31 | 54.96780 | 82.58000 | 5003 ft | 208 kts | 121° |
| 2026-04-14 13:31 | 54.96050 | 82.60319 | 5017 ft | 234 kts | 120° |
| 2026-04-14 13:31 | 54.95256 | 82.62896 | 4988 ft | 240 kts | 119° |
| 2026-04-14 13:32 | 54.94480 | 82.65422 | 5006 ft | 241 kts | 120° |
| 2026-04-14 13:32 | 54.93685 | 82.67990 | 5011 ft | 241 kts | 120° |
| 2026-04-14 13:32 | 54.92886 | 82.70553 | 5006 ft | 241 kts | 120° |
| 2026-04-14 13:32 | 54.92084 | 82.73110 | 5010 ft | 241 kts | 120° |
| 2026-04-14 13:33 | 54.91277 | 82.75670 | 5013 ft | 241 kts | 120° |
| 2026-04-14 13:33 | 54.90472 | 82.78223 | 5020 ft | 241 kts | 120° |
| 2026-04-14 13:33 | 54.89669 | 82.80778 | 4996 ft | 240 kts | 120° |
| 2026-04-14 13:33 | 54.88872 | 82.83315 | 4662 ft | 239 kts | 120° |
| 2026-04-14 13:34 | 54.88701 | 82.88797 | 3989 ft | 236 kts | 71° |
| 2026-04-14 13:34 | 54.89235 | 82.91497 | 3650 ft | 235 kts | 69° |
| 2026-04-14 13:34 | 54.89803 | 82.94157 | 3338 ft | 234 kts | 69° |
| 2026-04-14 13:35 | 54.90371 | 82.96807 | 3022 ft | 233 kts | 69° |
| 2026-04-14 13:35 | 54.90896 | 82.99292 | 2730 ft | 232 kts | 69° |
| 2026-04-14 13:35 | 54.91447 | 83.01920 | 2418 ft | 231 kts | 70° |
| 2026-04-14 13:35 | 54.91984 | 83.04498 | 2134 ft | 228 kts | 70° |
| 2026-04-14 13:36 | 54.92590 | 83.06954 | 2015 ft | 216 kts | 56° |
| 2026-04-14 13:36 | 54.93644 | 83.08732 | 2024 ft | 210 kts | 28° |
| 2026-04-14 13:36 | 54.95008 | 83.09435 | 2026 ft | 205 kts | 359° |
| 2026-04-14 13:36 | 54.96368 | 83.08933 | 2029 ft | 195 kts | 330° |
| 2026-04-14 13:37 | 54.97344 | 83.07564 | 2021 ft | 171 kts | 306° |
| 2026-04-14 13:37 | 54.97913 | 83.05854 | 2017 ft | 157 kts | 295° |
| 2026-04-14 13:37 | 54.98409 | 83.04189 | 2018 ft | 153 kts | 295° |
| 2026-04-14 13:37 | 54.98895 | 83.02571 | 2226 ft | 151 kts | 295° |
| 2026-04-14 13:38 | 54.99377 | 83.00955 | 2496 ft | 151 kts | 295° |
| 2026-04-14 13:38 | 54.99860 | 82.99333 | 2761 ft | 151 kts | 295° |
| 2026-04-14 13:38 | 55.00342 | 82.97711 | 2974 ft | 151 kts | 295° |
| 2026-04-14 13:38 | 55.00824 | 82.96088 | 3020 ft | 151 kts | 295° |
| 2026-04-14 13:39 | 55.01306 | 82.94463 | 3016 ft | 150 kts | 295° |
| 2026-04-14 13:39 | 55.01786 | 82.92844 | 3013 ft | 150 kts | 295° |
| 2026-04-14 13:39 | 55.02266 | 82.91226 | 3018 ft | 150 kts | 295° |
| 2026-04-14 13:39 | 55.02736 | 82.89632 | 3013 ft | 143 kts | 293° |
| 2026-04-14 13:40 | 55.03038 | 82.88016 | 3011 ft | 138 kts | 279° |
| 2026-04-14 13:40 | 55.03070 | 82.86365 | 2877 ft | 137 kts | 264° |
| 2026-04-14 13:40 | 55.02963 | 82.84705 | 2552 ft | 137 kts | 262° |
| 2026-04-14 13:40 | 55.02838 | 82.83070 | 2295 ft | 135 kts | 261° |
| 2026-04-14 13:41 | 55.02704 | 82.81452 | 2087 ft | 135 kts | 261° |
| 2026-04-14 13:41 | 55.02564 | 82.79833 | 1889 ft | 135 kts | 261° |
| 2026-04-14 13:41 | 55.02422 | 82.78210 | 1685 ft | 136 kts | 261° |
| 2026-04-14 13:41 | 55.02278 | 82.76587 | 1492 ft | 136 kts | 261° |
| 2026-04-14 13:42 | 55.02134 | 82.74960 | 1273 ft | 137 kts | 260° |
| 2026-04-14 13:42 | 55.02036 | 82.73872 | 1121 ft | 137 kts | 259° |
| 2026-04-14 13:42 | 55.01841 | 82.71673 | 834 ft | 138 kts | 259° |
| 2026-04-14 13:42 | 55.01741 | 82.70579 | 699 ft | 137 kts | 259° |
| 2026-04-14 13:43 | 55.01596 | 82.68936 | 562 ft | 138 kts | 259° |
| 2026-04-14 13:43 | 55.01445 | 82.67290 | 375 ft | 135 kts | 261° |
| 2026-04-14 13:43 | 55.01284 | 82.65505 | 373 ft | 77 kts | 261° |
| 2026-04-14 13:43 | 55.01251 | 82.65141 | 373 ft | 10 kts | 261° |
| 2026-04-14 13:44 | 55.01247 | 82.65103 | 373 ft | 0 kts | 256° |
| 2026-04-14 13:44 | 55.01220 | 82.65060 | 372 ft | 9 kts | 198° |
| 2026-04-14 13:44 | 55.01160 | 82.65062 | 372 ft | 8 kts | 170° |
| 2026-04-14 13:44 | 55.01110 | 82.65077 | 373 ft | 0 kts | 171° |
| 2026-04-14 13:45 | 55.01083 | 82.65084 | 373 ft | 11 kts | 170° |
| 2026-04-14 13:45 | 55.00981 | 82.65113 | 373 ft | 7 kts | 171° |
| 2026-04-14 13:46 | 55.00939 | 82.65124 | 373 ft | 6 kts | 171° |
| 2026-04-14 13:46 | 55.00902 | 82.65134 | 373 ft | 5 kts | 169° |
| 2026-04-14 13:46 | 55.00885 | 82.65170 | 373 ft | 3 kts | 109° |
| 2026-04-14 13:46 | 55.00884 | 82.65212 | 373 ft | 5 kts | 90° |
| 2026-04-14 13:47 | 55.00885 | 82.65291 | 373 ft | 8 kts | 87° |
| 2026-04-14 13:47 | 55.00895 | 82.65415 | 373 ft | 13 kts | 81° |
| 2026-04-14 13:47 | 55.00911 | 82.65599 | 373 ft | 16 kts | 81° |
| 2026-04-14 13:47 | 55.00928 | 82.65784 | 373 ft | 15 kts | 81° |
| 2026-04-14 13:48 | 55.00944 | 82.65959 | 373 ft | 14 kts | 81° |
| 2026-04-14 13:48 | 55.00955 | 82.66077 | 373 ft | 5 kts | 80° |
| 2026-04-14 13:48 | 55.00965 | 82.66126 | 373 ft | 3 kts | 64° |
| 2026-04-14 13:48 | 55.00965 | 82.66127 | 373 ft | 0 kts | 64° |
| 2026-04-14 13:49 | 55.00970 | 82.66144 | 373 ft | 7 kts | 64° |
| 2026-04-14 13:50 | 55.01000 | 82.66277 | 373 ft | 13 kts | 71° |
| 2026-04-14 13:50 | 55.01029 | 82.66422 | 373 ft | 12 kts | 70° |
| 2026-04-14 13:50 | 55.01061 | 82.66553 | 373 ft | 11 kts | 67° |
| 2026-04-14 13:50 | 55.01081 | 82.66637 | 373 ft | 3 kts | 67° |
| 2026-04-14 13:51 | 55.01088 | 82.66666 | 373 ft | 2 kts | 67° |
| 2026-04-14 13:51 | 55.01093 | 82.66705 | 373 ft | 7 kts | 80° |
| 2026-04-14 13:51 | 55.01098 | 82.66817 | 373 ft | 5 kts | 92° |
| 2026-04-14 13:51 | 55.01090 | 82.66869 | 373 ft | 4 kts | 115° |
| 2026-04-14 13:52 | 55.01079 | 82.66906 | 373 ft | 3 kts | 110° |
| 2026-04-14 13:52 | 55.01078 | 82.66932 | 373 ft | 2 kts | 86° |
| 2026-04-14 13:52 | 55.01085 | 82.67014 | 373 ft | 13 kts | 82° |
| 2026-04-14 13:52 | 55.01093 | 82.67111 | 373 ft | 6 kts | 81° |
| 2026-04-14 13:53 | 55.01098 | 82.67173 | 373 ft | 4 kts | 85° |
| 2026-04-14 13:53 | 55.01085 | 82.67206 | 373 ft | 3 kts | 142° |
| 2026-04-14 13:53 | 55.01060 | 82.67222 | 373 ft | 6 kts | 166° |
| 2026-04-14 13:53 | 55.01038 | 82.67229 | 373 ft | 0 kts | 170° |